Time;durP1;ratioP1;P1;durP2;ratioP2;P2;SDS_P1;SDS_P2;PMS_P1;PMS_P2;Temp;Humidity;BMP_temperature;BMP_pressure;BME280_temperature;BME280_humidity;BME280_pressure;Samples;Min_cycle;Max_cycle;Signal;HPM_P1;HPM_P2
2023/06/01 00:02:23;;;;;;;18.33;5.50;;;;;;;;;;5057834;28;20776;-71
2023/06/01 00:04:50;;;;;;;15.23;5.63;;;;;;;;;;5044412;28;20233;-71
2023/06/01 00:07:16;;;;;;;15.35;5.35;;;;;;;;;;5061718;28;20064;-71
2023/06/01 00:09:42;;;;;;;15.43;4.97;;;;;;;;;;5053782;28;20699;-70
2023/06/01 00:12:08;;;;;;;19.92;5.82;;;;;;;;;;5059433;28;20079;-72
2023/06/01 00:14:35;;;;;;;12.38;5.07;;;;;;;;;;5060792;28;20131;-71
2023/06/01 00:17:05;;;;;;;21.38;5.30;;;;;;;;;;5056438;28;20052;-71
2023/06/01 00:19:31;;;;;;;20.00;6.07;;;;;;;;;;5056822;28;20392;-70
2023/06/01 00:21:58;;;;;;;20.50;5.88;;;;;;;;;;5057766;28;20097;-72
2023/06/01 00:24:25;;;;;;;18.77;6.15;;;;;;;;;;5051718;28;20051;-71
2023/06/01 00:26:51;;;;;;;16.42;6.43;;;;;;;;;;5053620;28;20075;-72
2023/06/01 00:29:18;;;;;;;16.73;5.63;;;;;;;;;;5056632;28;20132;-71
2023/06/01 00:31:44;;;;;;;14.30;5.53;;;;;;;;;;5053541;28;20047;-71
2023/06/01 00:34:11;;;;;;;13.40;5.20;;;;;;;;;;5053717;28;20039;-72
2023/06/01 00:36:37;;;;;;;22.80;5.32;;;;;;;;;;5054692;28;20196;-71
2023/06/01 00:39:03;;;;;;;21.17;5.53;;;;;;;;;;5056228;28;20048;-71
2023/06/01 00:41:30;;;;;;;16.80;5.00;;;;;;;;;;5058059;28;20059;-71
2023/06/01 00:43:56;;;;;;;20.92;5.55;;;;;;;;;;5058411;28;20048;-71
2023/06/01 00:46:22;;;;;;;13.90;5.70;;;;;;;;;;5058980;28;20039;-71
2023/06/01 00:48:48;;;;;;;13.70;4.68;;;;;;;;;;5057342;28;20125;-72
2023/06/01 00:51:15;;;;;;;11.60;4.32;;;;;;;;;;5056074;28;20455;-71
2023/06/01 00:53:41;;;;;;;10.15;4.75;;;;;;;;;;5058039;28;20170;-71
2023/06/01 00:56:08;;;;;;;27.38;6.18;;;;;;;;;;5054111;28;20411;-71
2023/06/01 00:58:34;;;;;;;16.33;4.57;;;;;;;;;;5073314;28;20136;-71
2023/06/01 01:01:01;;;;;;;14.90;6.38;;;;;;;;;;5058972;28;20044;-71
2023/06/01 01:03:31;;;;;;;19.25;5.53;;;;;;;;;;5058102;28;20044;-71
2023/06/01 01:06:22;;;;;;;16.20;5.43;;;;;;;;;;5069225;28;20047;-71
2023/06/01 01:09:07;;;;;;;12.10;5.32;;;;;;;;;;5055543;28;21288;-71
2023/06/01 01:11:35;;;;;;;9.13;4.32;;;;;;;;;;5066145;28;20044;-72
2023/06/01 01:14:05;;;;;;;17.60;5.18;;;;;;;;;;5056826;28;20036;-72
2023/06/01 01:16:41;;;;;;;14.98;4.50;;;;;;;;;;5058239;28;20048;-71
2023/06/01 01:19:26;;;;;;;10.93;4.50;;;;;;;;;;5059477;28;20152;-71
2023/06/01 01:22:16;;;;;;;14.50;4.22;;;;;;;;;;5056556;28;20151;-71
2023/06/01 01:24:48;;;;;;;12.35;4.00;;;;;;;;;;5053470;28;20066;-71
2023/06/01 01:27:31;;;;;;;6.47;3.55;;;;;;;;;;5057694;28;20052;-71
2023/06/01 01:30:02;;;;;;;11.55;3.35;;;;;;;;;;5063447;28;20037;-71
2023/06/01 01:32:28;;;;;;;8.68;3.42;;;;;;;;;;5060985;28;20052;-71
2023/06/01 01:34:56;;;;;;;17.13;3.60;;;;;;;;;;5061436;28;20047;-71
2023/06/01 01:37:22;;;;;;;14.85;3.72;;;;;;;;;;5063521;28;20044;-71
2023/06/01 01:39:48;;;;;;;10.00;3.17;;;;;;;;;;5059573;28;20048;-72
2023/06/01 01:42:15;;;;;;;11.68;3.25;;;;;;;;;;5059272;28;20040;-71
2023/06/01 01:44:41;;;;;;;11.82;3.47;;;;;;;;;;5061255;28;20374;-71
2023/06/01 01:47:28;;;;;;;9.27;3.67;;;;;;;;;;5060030;28;20047;-71
2023/06/01 01:49:56;;;;;;;11.02;3.85;;;;;;;;;;5064054;28;20040;-70
2023/06/01 01:52:26;;;;;;;17.63;3.78;;;;;;;;;;5060148;28;20037;-71
2023/06/01 01:54:52;;;;;;;9.60;3.53;;;;;;;;;;5060116;28;20059;-71
2023/06/01 01:57:19;;;;;;;8.40;3.08;;;;;;;;;;5057951;28;20051;-71
2023/06/01 01:59:48;;;;;;;12.38;3.60;;;;;;;;;;5056618;28;20049;-71
2023/06/01 02:02:14;;;;;;;13.32;3.50;;;;;;;;;;5060303;28;20056;-71
2023/06/01 02:04:41;;;;;;;10.40;3.40;;;;;;;;;;5059161;28;20625;-71
2023/06/01 02:07:07;;;;;;;11.48;4.07;;;;;;;;;;5057283;28;20040;-72
2023/06/01 02:09:33;;;;;;;13.60;4.38;;;;;;;;;;5060130;28;20051;-72
2023/06/01 02:12:00;;;;;;;8.90;3.05;;;;;;;;;;5058960;28;20055;-72
2023/06/01 02:14:26;;;;;;;12.05;3.60;;;;;;;;;;5057265;28;20105;-72
2023/06/01 02:16:53;;;;;;;10.85;3.70;;;;;;;;;;5059698;28;20044;-72
2023/06/01 02:19:20;;;;;;;9.55;3.55;;;;;;;;;;5058891;28;20056;-72
2023/06/01 02:21:46;;;;;;;14.60;4.00;;;;;;;;;;5058537;28;20082;-72
2023/06/01 02:24:12;;;;;;;11.15;4.10;;;;;;;;;;5075044;28;22161;-72
2023/06/01 02:26:38;;;;;;;13.20;4.88;;;;;;;;;;5057759;28;20036;-71
2023/06/01 02:29:05;;;;;;;11.68;3.78;;;;;;;;;;5070415;27;20033;-72
2023/06/01 02:31:35;;;;;;;8.98;4.20;;;;;;;;;;5058093;28;20408;-71
2023/06/01 02:34:01;;;;;;;8.50;3.63;;;;;;;;;;5059828;28;20044;-72
2023/06/01 02:36:28;;;;;;;14.73;4.95;;;;;;;;;;5063877;28;20116;-72
2023/06/01 02:38:55;;;;;;;11.68;4.15;;;;;;;;;;5065789;28;20066;-71
2023/06/01 02:41:21;;;;;;;8.55;4.00;;;;;;;;;;5065070;28;20066;-71
2023/06/01 02:43:50;;;;;;;12.85;4.57;;;;;;;;;;5059701;28;20040;-72
2023/06/01 02:46:17;;;;;;;13.23;4.20;;;;;;;;;;5059098;28;20039;-72
2023/06/01 02:48:44;;;;;;;13.15;4.40;;;;;;;;;;5058142;28;20071;-72
2023/06/01 02:51:10;;;;;;;10.57;4.20;;;;;;;;;;5058297;28;20861;-72
2023/06/01 02:53:36;;;;;;;15.90;4.45;;;;;;;;;;5058068;28;20059;-72
2023/06/01 02:56:02;;;;;;;13.43;4.68;;;;;;;;;;5058238;28;20072;-72
2023/06/01 02:58:29;;;;;;;14.38;5.07;;;;;;;;;;5059223;28;20480;-71
2023/06/01 03:00:58;;;;;;;12.27;5.15;;;;;;;;;;5057981;28;20048;-72
2023/06/01 03:03:25;;;;;;;15.70;4.75;;;;;;;;;;5058439;28;20190;-72
2023/06/01 03:05:51;;;;;;;12.73;4.47;;;;;;;;;;5055279;28;20377;-72
2023/06/01 03:08:17;;;;;;;9.98;4.63;;;;;;;;;;5056759;28;20039;-71
2023/06/01 03:10:44;;;;;;;10.18;4.45;;;;;;;;;;5057714;28;20048;-72
2023/06/01 03:13:10;;;;;;;10.07;4.20;;;;;;;;;;5058504;28;20130;-72
2023/06/01 03:15:37;;;;;;;8.77;4.85;;;;;;;;;;5034620;28;20070;-72
2023/06/01 03:18:03;;;;;;;13.57;5.05;;;;;;;;;;5058522;28;20055;-72
2023/06/01 03:20:30;;;;;;;14.75;5.05;;;;;;;;;;5035449;28;21321;-72
2023/06/01 03:22:56;;;;;;;17.08;5.20;;;;;;;;;;5059775;28;20049;-72
2023/06/01 03:25:22;;;;;;;16.73;4.57;;;;;;;;;;5058699;28;20181;-71
2023/06/01 03:27:48;;;;;;;16.60;5.43;;;;;;;;;;5056635;28;21322;-72
2023/06/01 03:30:15;;;;;;;9.00;4.70;;;;;;;;;;5055254;28;20036;-71
2023/06/01 03:32:42;;;;;;;18.20;5.20;;;;;;;;;;5055970;28;20048;-72
2023/06/01 03:35:09;;;;;;;18.98;5.75;;;;;;;;;;5056551;28;20480;-71
2023/06/01 03:37:35;;;;;;;13.35;4.80;;;;;;;;;;5053060;28;20043;-71
2023/06/01 03:40:10;;;;;;;12.38;5.00;;;;;;;;;;5054437;28;20040;-71
2023/06/01 03:42:36;;;;;;;14.45;5.57;;;;;;;;;;5055795;28;20052;-71
2023/06/01 03:45:04;;;;;;;15.55;4.55;;;;;;;;;;5054513;28;21789;-71
2023/06/01 03:47:30;;;;;;;12.82;4.18;;;;;;;;;;5050339;28;20069;-71
2023/06/01 03:50:01;;;;;;;20.13;4.80;;;;;;;;;;5054537;28;20132;-71
2023/06/01 03:52:27;;;;;;;9.02;3.40;;;;;;;;;;5054707;28;20485;-71
2023/06/01 03:54:53;;;;;;;10.48;4.25;;;;;;;;;;5058841;28;20426;-71
2023/06/01 03:57:20;;;;;;;10.93;3.90;;;;;;;;;;5057027;28;20066;-71
2023/06/01 03:59:46;;;;;;;11.80;4.32;;;;;;;;;;5057533;28;20060;-71
2023/06/01 04:02:13;;;;;;;16.20;5.30;;;;;;;;;;5056696;28;20044;-71
2023/06/01 04:04:45;;;;;;;15.05;5.13;;;;;;;;;;5057518;28;20111;-71
2023/06/01 04:07:14;;;;;;;12.88;5.32;;;;;;;;;;5058814;28;20047;-71
2023/06/01 04:09:43;;;;;;;14.60;4.65;;;;;;;;;;5051540;28;20068;-71
2023/06/01 04:12:13;;;;;;;17.55;4.97;;;;;;;;;;5058253;28;20076;-71
2023/06/01 04:14:39;;;;;;;14.93;4.88;;;;;;;;;;5061709;28;20040;-71
2023/06/01 04:17:06;;;;;;;20.58;5.75;;;;;;;;;;5062437;28;20047;-71
2023/06/01 04:19:32;;;;;;;21.02;5.75;;;;;;;;;;5063416;28;21948;-71
2023/06/01 04:21:58;;;;;;;14.23;4.50;;;;;;;;;;5061015;28;20051;-71
2023/06/01 04:24:25;;;;;;;14.02;5.13;;;;;;;;;;5061405;28;20047;-70
2023/06/01 04:26:51;;;;;;;11.50;4.22;;;;;;;;;;5061398;28;20090;-71
2023/06/01 04:29:19;;;;;;;11.80;4.45;;;;;;;;;;5062904;28;20052;-71
2023/06/01 04:31:48;;;;;;;19.42;5.93;;;;;;;;;;5058825;28;20052;-71
2023/06/01 04:34:15;;;;;;;14.10;4.70;;;;;;;;;;5066417;28;20050;-71
2023/06/01 04:36:41;;;;;;;15.00;5.03;;;;;;;;;;5062226;28;20048;-71
2023/06/01 04:39:07;;;;;;;13.98;4.50;;;;;;;;;;5064008;28;20086;-71
2023/06/01 04:41:37;;;;;;;13.98;5.18;;;;;;;;;;5061548;28;20047;-71
2023/06/01 04:44:06;;;;;;;9.25;4.65;;;;;;;;;;5065258;28;20032;-70
2023/06/01 04:46:34;;;;;;;10.50;4.53;;;;;;;;;;5064430;28;20174;-70
2023/06/01 04:49:01;;;;;;;8.50;3.67;;;;;;;;;;5063964;28;20032;-71
2023/06/01 04:51:28;;;;;;;20.88;5.32;;;;;;;;;;5065387;28;20079;-71
2023/06/01 04:53:55;;;;;;;12.93;4.28;;;;;;;;;;5066693;28;20091;-71
2023/06/01 04:56:28;;;;;;;7.90;3.83;;;;;;;;;;5067078;28;20077;-70
2023/06/01 04:58:55;;;;;;;9.93;3.30;;;;;;;;;;5072425;28;20052;-71
2023/06/01 05:01:25;;;;;;;4.95;2.40;;;;;;;;;;5070802;28;20081;-71
2023/06/01 05:03:52;;;;;;;5.15;2.58;;;;;;;;;;5067894;28;20051;-71
2023/06/01 05:06:19;;;;;;;4.78;1.90;;;;;;;;;;5068031;28;20958;-71
2023/06/01 05:08:45;;;;;;;5.72;2.38;;;;;;;;;;5067534;28;20052;-71
2023/06/01 05:11:12;;;;;;;7.45;3.05;;;;;;;;;;5067166;28;20044;-70
2023/06/01 05:13:39;;;;;;;5.68;2.53;;;;;;;;;;5065942;28;20408;-70
2023/06/01 05:16:06;;;;;;;6.65;2.70;;;;;;;;;;5066741;28;20042;-71
2023/06/01 05:18:32;;;;;;;4.53;2.33;;;;;;;;;;5066293;28;20044;-71
2023/06/01 05:20:59;;;;;;;5.75;2.20;;;;;;;;;;5065905;28;20049;-71
2023/06/01 05:23:25;;;;;;;4.85;2.53;;;;;;;;;;5066297;28;20252;-70
2023/06/01 05:25:52;;;;;;;5.93;2.55;;;;;;;;;;5085737;28;20040;-71
2023/06/01 05:28:20;;;;;;;6.30;3.08;;;;;;;;;;5068285;28;20059;-70
2023/06/01 05:30:46;;;;;;;5.93;2.28;;;;;;;;;;5069477;28;20043;-71
2023/06/01 05:33:12;;;;;;;7.20;2.47;;;;;;;;;;5068099;28;20046;-71
2023/06/01 05:35:38;;;;;;;7.10;2.50;;;;;;;;;;5069389;28;20177;-71
2023/06/01 05:38:04;;;;;;;5.85;2.17;;;;;;;;;;5070165;28;20039;-71
2023/06/01 05:40:31;;;;;;;4.03;2.15;;;;;;;;;;5068631;28;20953;-71
2023/06/01 05:42:57;;;;;;;4.78;2.63;;;;;;;;;;5068199;28;20282;-70
2023/06/01 05:45:23;;;;;;;5.15;2.63;;;;;;;;;;5070028;28;20044;-71
2023/06/01 05:47:49;;;;;;;4.97;3.03;;;;;;;;;;5066155;28;20129;-71
2023/06/01 05:50:15;;;;;;;7.55;2.80;;;;;;;;;;5067765;28;20043;-71
2023/06/01 05:52:42;;;;;;;6.85;2.38;;;;;;;;;;5069011;28;20059;-71
2023/06/01 05:55:09;;;;;;;4.13;1.98;;;;;;;;;;5068592;28;20044;-71
2023/06/01 05:57:35;;;;;;;4.78;1.67;;;;;;;;;;5069511;28;20114;-70
2023/06/01 06:00:01;;;;;;;3.75;1.70;;;;;;;;;;5067774;28;20076;-71
2023/06/01 06:02:27;;;;;;;2.92;1.50;;;;;;;;;;5069422;28;20047;-71
2023/06/01 06:04:53;;;;;;;3.58;1.75;;;;;;;;;;5066852;28;20059;-70
2023/06/01 06:07:19;;;;;;;4.55;1.80;;;;;;;;;;5082969;28;20048;-71
2023/06/01 06:09:46;;;;;;;5.07;2.08;;;;;;;;;;5061635;28;20039;-71
2023/06/01 06:12:12;;;;;;;3.33;1.98;;;;;;;;;;5063030;28;20040;-71
2023/06/01 06:14:38;;;;;;;5.70;1.88;;;;;;;;;;5064743;28;20147;-71
2023/06/01 06:17:04;;;;;;;3.53;1.77;;;;;;;;;;5067001;28;20074;-70
2023/06/01 06:19:30;;;;;;;5.18;1.63;;;;;;;;;;5067642;28;20040;-70
2023/06/01 06:21:56;;;;;;;4.53;1.90;;;;;;;;;;5069263;28;20046;-70
2023/06/01 06:24:22;;;;;;;4.25;1.55;;;;;;;;;;5068351;28;20044;-71
2023/06/01 06:26:49;;;;;;;2.75;1.50;;;;;;;;;;5069445;28;20040;-71
2023/06/01 06:29:15;;;;;;;10.27;1.75;;;;;;;;;;5066819;28;20035;-70
2023/06/01 06:31:42;;;;;;;5.03;2.13;;;;;;;;;;5066559;28;20044;-70
2023/06/01 06:34:09;;;;;;;5.55;2.25;;;;;;;;;;5066688;28;20072;-70
2023/06/01 06:36:35;;;;;;;4.80;2.20;;;;;;;;;;5067759;28;20043;-70
2023/06/01 06:39:01;;;;;;;6.90;2.95;;;;;;;;;;5067393;28;20150;-70
2023/06/01 06:41:27;;;;;;;8.45;3.00;;;;;;;;;;5043441;28;20036;-70
2023/06/01 06:43:53;;;;;;;6.03;3.05;;;;;;;;;;5067123;28;20048;-70
2023/06/01 06:46:19;;;;;;;12.98;4.07;;;;;;;;;;5068317;28;20079;-70
2023/06/01 06:48:46;;;;;;;9.77;3.33;;;;;;;;;;5080610;28;20956;-70
2023/06/01 06:51:12;;;;;;;8.30;3.58;;;;;;;;;;5067924;28;20052;-71
2023/06/01 06:53:39;;;;;;;8.73;3.15;;;;;;;;;;5070975;28;20113;-80
2023/06/01 06:56:05;;;;;;;5.68;3.65;;;;;;;;;;5075949;28;20063;-81
2023/06/01 06:58:32;;;;;;;11.07;3.47;;;;;;;;;;5074602;28;20040;-82
2023/06/01 07:00:58;;;;;;;12.02;3.78;;;;;;;;;;5074988;28;20044;-81
2023/06/01 07:03:26;;;;;;;10.45;4.20;;;;;;;;;;5071261;28;20043;-81
2023/06/01 07:05:52;;;;;;;12.93;4.18;;;;;;;;;;5082584;28;20095;-82
2023/06/01 07:08:19;;;;;;;8.82;4.45;;;;;;;;;;5068940;28;20067;-82
2023/06/01 07:10:45;;;;;;;11.30;4.30;;;;;;;;;;5071188;28;20524;-82
2023/06/01 07:13:11;;;;;;;11.18;3.80;;;;;;;;;;5070460;28;20055;-82
2023/06/01 07:15:37;;;;;;;10.18;3.95;;;;;;;;;;5068440;28;20044;-81
2023/06/01 07:18:03;;;;;;;11.02;3.53;;;;;;;;;;5049285;28;20062;-81
2023/06/01 07:20:30;;;;;;;5.65;3.58;;;;;;;;;;5065904;28;20043;-81
2023/06/01 07:22:56;;;;;;;10.63;4.30;;;;;;;;;;5074248;28;20117;-81
2023/06/01 07:25:22;;;;;;;8.52;4.32;;;;;;;;;;5067361;28;20052;-81
2023/06/01 07:27:49;;;;;;;13.98;5.07;;;;;;;;;;5072753;28;20097;-81
2023/06/01 07:30:15;;;;;;;10.45;4.30;;;;;;;;;;5072984;28;20058;-81
2023/06/01 07:32:42;;;;;;;9.07;3.90;;;;;;;;;;5069465;28;20043;-81
2023/06/01 07:35:09;;;;;;;14.90;4.20;;;;;;;;;;5071661;28;20040;-82
2023/06/01 07:37:35;;;;;;;9.57;3.88;;;;;;;;;;5072360;28;20040;-82
2023/06/01 07:40:03;;;;;;;10.25;3.50;;;;;;;;;;5068826;28;20047;-81
2023/06/01 07:42:29;;;;;;;11.55;4.25;;;;;;;;;;5083685;27;20048;-81
2023/06/01 07:44:56;;;;;;;10.32;5.05;;;;;;;;;;5067790;28;20125;-79
2023/06/01 07:47:24;;;;;;;10.02;4.05;;;;;;;;;;5066869;28;20050;-78
2023/06/01 07:49:51;;;;;;;11.20;4.25;;;;;;;;;;5065524;28;20059;-71
2023/06/01 07:52:17;;;;;;;12.80;4.60;;;;;;;;;;5060254;28;21605;-71
2023/06/01 07:54:43;;;;;;;14.20;3.92;;;;;;;;;;5060895;28;20036;-71
2023/06/01 07:57:09;;;;;;;9.90;3.85;;;;;;;;;;5040207;28;20043;-70
2023/06/01 07:59:35;;;;;;;7.43;3.45;;;;;;;;;;5060223;28;20088;-70
2023/06/01 08:02:02;;;;;;;7.45;3.17;;;;;;;;;;5062288;28;21151;-70
2023/06/01 08:04:33;;;;;;;10.93;3.40;;;;;;;;;;5060882;28;20054;-70
2023/06/01 08:06:59;;;;;;;11.38;3.80;;;;;;;;;;5060318;28;20131;-71
2023/06/01 08:09:25;;;;;;;14.02;3.28;;;;;;;;;;5060029;28;20044;-70
2023/06/01 08:11:53;;;;;;;12.60;3.20;;;;;;;;;;5060947;28;20040;-69
2023/06/01 08:14:19;;;;;;;12.60;3.88;;;;;;;;;;5058259;28;20049;-70
2023/06/01 08:16:45;;;;;;;12.75;3.70;;;;;;;;;;5061110;28;20064;-70
2023/06/01 08:19:11;;;;;;;16.35;4.15;;;;;;;;;;5060659;28;20055;-70
2023/06/01 08:21:37;;;;;;;13.05;3.38;;;;;;;;;;5060146;28;20040;-70
2023/06/01 08:24:03;;;;;;;10.40;3.10;;;;;;;;;;5071757;28;20084;-71
2023/06/01 08:26:30;;;;;;;11.52;3.40;;;;;;;;;;5057516;28;20127;-70
2023/06/01 08:28:56;;;;;;;10.93;3.05;;;;;;;;;;5061256;28;20055;-71
2023/06/01 08:31:23;;;;;;;9.05;3.25;;;;;;;;;;5057290;28;20115;-71
2023/06/01 08:33:50;;;;;;;8.35;3.50;;;;;;;;;;5040426;28;20500;-71
2023/06/01 08:36:17;;;;;;;9.40;3.53;;;;;;;;;;5064330;28;20123;-71
2023/06/01 08:38:43;;;;;;;13.57;3.13;;;;;;;;;;5063140;28;20044;-72
2023/06/01 08:41:12;;;;;;;11.02;3.25;;;;;;;;;;5062138;28;20158;-71
2023/06/01 08:43:39;;;;;;;13.50;2.97;;;;;;;;;;5060972;28;20059;-71
2023/06/01 08:46:05;;;;;;;9.80;3.58;;;;;;;;;;5061646;28;20097;-71
2023/06/01 08:48:32;;;;;;;12.10;3.30;;;;;;;;;;5061006;28;20036;-71
2023/06/01 08:50:59;;;;;;;10.40;2.60;;;;;;;;;;5063870;28;20047;-71
2023/06/01 08:53:28;;;;;;;7.75;3.15;;;;;;;;;;5062990;28;20047;-71
2023/06/01 08:55:55;;;;;;;10.55;3.22;;;;;;;;;;5055896;28;20677;-71
2023/06/01 08:58:21;;;;;;;14.73;3.40;;;;;;;;;;5062247;28;20089;-72
2023/06/01 09:00:48;;;;;;;16.00;3.97;;;;;;;;;;5058290;28;20143;-71
2023/06/01 09:03:14;;;;;;;16.33;3.85;;;;;;;;;;5061383;28;20052;-71
2023/06/01 09:05:40;;;;;;;16.70;3.60;;;;;;;;;;5059679;28;20050;-71
2023/06/01 09:08:06;;;;;;;17.38;4.18;;;;;;;;;;5056114;28;20121;-71
2023/06/01 09:10:32;;;;;;;21.58;4.18;;;;;;;;;;5061841;28;20056;-71
2023/06/01 09:13:00;;;;;;;16.92;4.22;;;;;;;;;;5062312;28;20044;-71
2023/06/01 09:15:26;;;;;;;16.88;4.05;;;;;;;;;;5042312;28;20044;-71
2023/06/01 09:18:05;;;;;;;12.60;3.85;;;;;;;;;;5060026;28;20154;-71
2023/06/01 09:20:31;;;;;;;15.13;3.70;;;;;;;;;;5055882;28;20048;-71
2023/06/01 09:22:58;;;;;;;12.18;3.50;;;;;;;;;;5057292;28;20047;-72
2023/06/01 09:25:28;;;;;;;14.23;4.22;;;;;;;;;;5061792;28;20117;-71
2023/06/01 09:27:54;;;;;;;13.68;3.92;;;;;;;;;;5060370;28;20036;-71
2023/06/01 09:30:21;;;;;;;12.73;3.38;;;;;;;;;;5060083;28;20051;-71
2023/06/01 09:32:50;;;;;;;16.77;3.53;;;;;;;;;;5059050;28;20090;-71
2023/06/01 09:35:37;;;;;;;14.40;3.92;;;;;;;;;;5054877;28;20044;-71
2023/06/01 09:38:05;;;;;;;10.68;3.08;;;;;;;;;;5065689;28;20056;-72
2023/06/01 09:40:32;;;;;;;16.25;3.20;;;;;;;;;;5064203;28;20129;-70
2023/06/01 09:42:58;;;;;;;9.95;3.22;;;;;;;;;;5068674;28;20044;-70
2023/06/01 09:45:24;;;;;;;10.48;2.75;;;;;;;;;;5048698;28;20599;-70
2023/06/01 09:47:50;;;;;;;9.20;2.83;;;;;;;;;;5061116;28;20130;-70
2023/06/01 09:50:33;;;;;;;8.93;2.67;;;;;;;;;;5068006;28;20052;-70
2023/06/01 09:53:00;;;;;;;11.88;3.50;;;;;;;;;;5066926;28;20968;-70
2023/06/01 09:55:26;;;;;;;9.40;2.60;;;;;;;;;;5051223;28;20055;-70
2023/06/01 09:57:52;;;;;;;11.07;2.97;;;;;;;;;;5066035;28;20044;-71
2023/06/01 10:00:24;;;;;;;7.53;2.55;;;;;;;;;;5068625;28;20048;-70
2023/06/01 10:02:54;;;;;;;9.02;2.75;;;;;;;;;;5066609;28;20633;-71
2023/06/01 10:05:21;;;;;;;9.25;2.83;;;;;;;;;;5068863;28;20055;-70
2023/06/01 10:07:48;;;;;;;15.35;4.22;;;;;;;;;;5071990;28;20185;-70
2023/06/01 10:10:15;;;;;;;12.65;2.92;;;;;;;;;;5082656;28;20526;-69
2023/06/01 10:12:41;;;;;;;16.92;3.42;;;;;;;;;;5076673;28;20048;-69
2023/06/01 10:15:08;;;;;;;15.38;4.35;;;;;;;;;;5045236;28;20061;-69
2023/06/01 10:17:34;;;;;;;13.07;3.30;;;;;;;;;;5062179;28;20048;-69
2023/06/01 10:20:02;;;;;;;11.63;3.00;;;;;;;;;;5063967;28;20253;-69
2023/06/01 10:22:29;;;;;;;17.90;3.40;;;;;;;;;;5077992;28;20055;-69
2023/06/01 10:24:58;;;;;;;13.30;3.22;;;;;;;;;;5068332;28;20075;-69
2023/06/01 10:27:24;;;;;;;12.13;3.33;;;;;;;;;;5062381;28;20043;-69
2023/06/01 10:29:52;;;;;;;16.42;4.00;;;;;;;;;;5068681;28;20090;-69
2023/06/01 10:32:37;;;;;;;12.57;3.10;;;;;;;;;;5066502;28;20058;-69
2023/06/01 10:35:03;;;;;;;10.23;3.35;;;;;;;;;;5069352;28;20123;-69
2023/06/01 10:37:30;;;;;;;9.10;2.83;;;;;;;;;;5064236;28;20040;-69
2023/06/01 10:40:15;;;;;;;12.00;2.70;;;;;;;;;;5069754;28;20052;-69
2023/06/01 10:42:41;;;;;;;10.90;2.47;;;;;;;;;;5066287;28;20048;-69
2023/06/01 10:45:07;;;;;;;9.45;2.38;;;;;;;;;;5064458;28;20047;-69
2023/06/01 10:47:33;;;;;;;13.20;2.63;;;;;;;;;;5067983;28;20040;-69
2023/06/01 10:50:00;;;;;;;8.50;2.92;;;;;;;;;;5067498;28;20073;-69
2023/06/01 10:52:38;;;;;;;8.65;2.40;;;;;;;;;;5067874;28;20044;-69
2023/06/01 10:55:07;;;;;;;6.07;2.55;;;;;;;;;;5068925;28;20071;-69
2023/06/01 10:57:33;;;;;;;9.25;2.13;;;;;;;;;;5068828;28;20113;-69
2023/06/01 11:00:09;;;;;;;10.60;2.28;;;;;;;;;;5065773;28;20048;-70
2023/06/01 11:02:43;;;;;;;9.95;2.20;;;;;;;;;;5065801;28;20128;-69
2023/06/01 11:05:27;;;;;;;9.60;2.40;;;;;;;;;;5068402;28;20059;-70
2023/06/01 11:07:54;;;;;;;10.18;2.10;;;;;;;;;;5084594;27;20087;-70
2023/06/01 11:10:39;;;;;;;9.65;2.20;;;;;;;;;;5064636;28;20043;-69
2023/06/01 11:13:19;;;;;;;11.75;2.60;;;;;;;;;;5067453;28;20048;-69
2023/06/01 11:16:04;;;;;;;9.40;2.80;;;;;;;;;;5077380;28;21203;-69
2023/06/01 11:18:42;;;;;;;12.73;2.55;;;;;;;;;;5061854;28;20058;-70
2023/06/01 11:21:16;;;;;;;6.75;2.85;;;;;;;;;;5064458;28;20040;-70
2023/06/01 11:23:42;;;;;;;8.43;2.53;;;;;;;;;;5063665;28;20044;-70
2023/06/01 11:26:09;;;;;;;13.07;3.22;;;;;;;;;;5064798;28;20051;-70
2023/06/01 11:28:35;;;;;;;9.60;2.72;;;;;;;;;;5060532;28;20055;-71
2023/06/01 11:31:02;;;;;;;8.95;2.88;;;;;;;;;;5061470;28;20077;-69
2023/06/01 11:33:29;;;;;;;7.35;2.65;;;;;;;;;;5054708;28;20052;-69
2023/06/01 11:35:59;;;;;;;10.40;2.95;;;;;;;;;;5060939;28;20078;-70
2023/06/01 11:38:32;;;;;;;15.35;3.08;;;;;;;;;;5060742;28;20036;-69
2023/06/01 11:41:00;;;;;;;12.20;3.03;;;;;;;;;;5063647;28;20512;-70
2023/06/01 11:43:32;;;;;;;13.32;3.72;;;;;;;;;;5060493;28;20411;-70
2023/06/01 11:46:02;;;;;;;14.68;3.20;;;;;;;;;;5063736;28;20044;-70
2023/06/01 11:48:28;;;;;;;13.10;3.13;;;;;;;;;;5061711;28;20044;-69
2023/06/01 11:50:54;;;;;;;11.30;3.00;;;;;;;;;;5060427;28;20579;-69
2023/06/01 11:53:21;;;;;;;13.45;2.90;;;;;;;;;;5063841;28;20055;-71
2023/06/01 11:56:06;;;;;;;10.35;3.17;;;;;;;;;;5066866;28;20046;-70
2023/06/01 11:58:32;;;;;;;12.75;3.05;;;;;;;;;;5065759;28;20078;-71
2023/06/01 12:00:59;;;;;;;15.82;3.38;;;;;;;;;;5063030;28;20052;-71
2023/06/01 12:03:25;;;;;;;11.50;3.38;;;;;;;;;;5060809;28;20080;-71
2023/06/01 12:05:52;;;;;;;10.93;2.90;;;;;;;;;;5059755;28;20054;-71
2023/06/01 12:08:21;;;;;;;8.43;2.58;;;;;;;;;;5066634;28;20041;-71
2023/06/01 12:10:49;;;;;;;7.50;2.55;;;;;;;;;;5065842;28;20056;-71
2023/06/01 12:13:16;;;;;;;6.50;2.60;;;;;;;;;;5064310;28;20048;-71
2023/06/01 12:15:42;;;;;;;6.78;2.53;;;;;;;;;;5067094;28;20040;-71
2023/06/01 12:18:08;;;;;;;13.38;3.28;;;;;;;;;;5065323;28;20036;-71
2023/06/01 12:20:35;;;;;;;11.13;2.30;;;;;;;;;;5065058;28;20605;-71
2023/06/01 12:23:05;;;;;;;8.60;2.83;;;;;;;;;;5064317;28;20051;-71
2023/06/01 12:25:31;;;;;;;15.00;3.13;;;;;;;;;;5066447;28;20052;-71
2023/06/01 12:28:05;;;;;;;6.78;2.28;;;;;;;;;;5065749;28;20127;-71
2023/06/01 12:30:31;;;;;;;4.77;1.80;;;;;;;;;;5064405;28;20044;-71
2023/06/01 12:32:57;;;;;;;7.15;2.72;;;;;;;;;;5066263;28;20097;-71
2023/06/01 12:35:24;;;;;;;6.18;2.35;;;;;;;;;;5064929;28;20032;-71
2023/06/01 12:38:05;;;;;;;6.45;1.88;;;;;;;;;;5064894;28;20057;-71
2023/06/01 12:40:31;;;;;;;7.18;2.22;;;;;;;;;;5066689;28;20063;-71
2023/06/01 12:42:57;;;;;;;7.80;2.63;;;;;;;;;;5066303;28;20041;-71
2023/06/01 12:45:23;;;;;;;10.20;2.38;;;;;;;;;;5064600;28;20044;-71
2023/06/01 12:47:49;;;;;;;11.50;2.47;;;;;;;;;;5064087;28;20093;-71
2023/06/01 12:50:15;;;;;;;10.52;2.63;;;;;;;;;;5073817;28;20047;-71
2023/06/01 12:52:42;;;;;;;11.07;2.53;;;;;;;;;;5079409;28;20131;-71
2023/06/01 12:55:09;;;;;;;9.75;2.53;;;;;;;;;;5040951;28;20117;-70
2023/06/01 12:57:35;;;;;;;12.82;2.92;;;;;;;;;;5058215;28;20078;-71
2023/06/01 13:00:03;;;;;;;11.23;2.40;;;;;;;;;;5063305;28;20551;-69
2023/06/01 13:02:30;;;;;;;16.85;2.75;;;;;;;;;;5061423;28;20067;-69
2023/06/01 13:04:57;;;;;;;7.82;2.40;;;;;;;;;;5059261;28;20048;-69
2023/06/01 13:07:23;;;;;;;11.25;2.55;;;;;;;;;;5055717;28;20158;-69
2023/06/01 13:09:50;;;;;;;10.07;1.88;;;;;;;;;;5061896;28;20036;-69
2023/06/01 13:12:16;;;;;;;8.98;1.80;;;;;;;;;;5064880;28;20040;-69
2023/06/01 13:14:42;;;;;;;9.80;2.67;;;;;;;;;;5064334;28;22069;-68
2023/06/01 13:17:08;;;;;;;8.57;2.05;;;;;;;;;;5081349;28;20517;-69
2023/06/01 13:19:34;;;;;;;6.75;2.03;;;;;;;;;;5063391;28;20040;-69
2023/06/01 13:22:00;;;;;;;7.38;1.70;;;;;;;;;;5065831;28;20036;-71
2023/06/01 13:24:27;;;;;;;5.50;2.05;;;;;;;;;;5062509;28;20044;-71
2023/06/01 13:26:53;;;;;;;12.70;2.65;;;;;;;;;;5066267;28;20525;-71
2023/06/01 13:29:19;;;;;;;12.57;1.88;;;;;;;;;;5069627;28;20119;-70
2023/06/01 13:31:45;;;;;;;11.90;2.42;;;;;;;;;;5065666;28;20159;-71
2023/06/01 13:34:11;;;;;;;4.82;1.55;;;;;;;;;;5069750;28;20423;-70
2023/06/01 13:36:37;;;;;;;5.95;1.45;;;;;;;;;;5068381;28;20145;-71
2023/06/01 13:39:04;;;;;;;13.05;2.85;;;;;;;;;;5069899;28;20051;-70
2023/06/01 13:41:30;;;;;;;9.07;1.52;;;;;;;;;;5070947;28;20032;-70
2023/06/01 13:43:56;;;;;;;8.68;1.60;;;;;;;;;;5071002;28;20131;-70
2023/06/01 13:46:23;;;;;;;8.82;2.00;;;;;;;;;;5064138;28;20177;-71
2023/06/01 13:48:49;;;;;;;10.48;2.00;;;;;;;;;;5069707;28;20040;-70
2023/06/01 13:51:15;;;;;;;9.57;2.13;;;;;;;;;;5060532;28;20376;-71
2023/06/01 13:53:41;;;;;;;8.90;1.52;;;;;;;;;;5066847;28;20099;-70
2023/06/01 13:56:07;;;;;;;7.05;1.88;;;;;;;;;;5066345;28;20899;-71
2023/06/01 13:58:34;;;;;;;5.25;1.80;;;;;;;;;;5067737;28;20044;-71
2023/06/01 14:01:00;;;;;;;11.60;2.28;;;;;;;;;;5083232;28;20051;-70
2023/06/01 14:03:27;;;;;;;6.03;1.67;;;;;;;;;;5066846;28;22063;-71
2023/06/01 14:05:53;;;;;;;8.80;1.73;;;;;;;;;;5069330;28;20054;-70
2023/06/01 14:08:19;;;;;;;7.03;1.40;;;;;;;;;;5068271;28;20044;-70
2023/06/01 14:10:45;;;;;;;6.75;1.55;;;;;;;;;;5067991;28;20047;-71
2023/06/01 14:13:11;;;;;;;4.07;1.38;;;;;;;;;;5061818;28;20058;-71
2023/06/01 14:15:37;;;;;;;5.05;1.70;;;;;;;;;;5068058;28;20071;-71
2023/06/01 14:18:04;;;;;;;7.32;1.10;;;;;;;;;;5063163;28;20052;-70
2023/06/01 14:20:30;;;;;;;8.70;1.92;;;;;;;;;;5067726;28;20044;-71
2023/06/01 14:22:56;;;;;;;12.07;1.77;;;;;;;;;;5059935;28;20058;-70
2023/06/01 14:25:22;;;;;;;12.23;1.85;;;;;;;;;;5066798;28;20043;-71
2023/06/01 14:27:49;;;;;;;5.50;1.70;;;;;;;;;;5067179;28;20083;-70
2023/06/01 14:30:16;;;;;;;10.48;1.58;;;;;;;;;;5060549;28;20040;-69
2023/06/01 14:32:42;;;;;;;8.93;2.20;;;;;;;;;;5053152;28;20040;-69
2023/06/01 14:35:08;;;;;;;8.05;2.15;;;;;;;;;;5061648;28;20051;-69
2023/06/01 14:37:34;;;;;;;7.93;1.90;;;;;;;;;;5066201;28;20029;-69
2023/06/01 14:40:00;;;;;;;7.28;1.73;;;;;;;;;;5077658;27;20150;-69